Time;durP1;ratioP1;P1;durP2;ratioP2;P2;SDS_P1;SDS_P2;PMS_P1;PMS_P2;Temp;Humidity;BMP_temperature;BMP_pressure;BME280_temperature;BME280_humidity;BME280_pressure;Samples;Min_cycle;Max_cycle;Signal;HPM_P1;HPM_P2
2022/05/27 00:00:21;;;;;;;8.23;4.45;;;24.70;71.90;;;;;;10862747;32;20051;-76
2022/05/27 00:06:23;;;;;;;10.05;4.10;;;24.50;71.80;;;;;;10867010;32;20423;-76
2022/05/27 00:12:25;;;;;;;6.05;3.05;;;24.40;72.00;;;;;;10874030;32;20336;-77
2022/05/27 00:18:27;;;;;;;5.97;3.33;;;24.50;72.40;;;;;;10483577;32;11894697;-76
2022/05/27 00:24:29;;;;;;;6.03;3.50;;;24.50;72.90;;;;;;10832533;32;20054;-76
2022/05/27 00:30:31;;;;;;;7.85;3.87;;;24.50;72.90;;;;;;10832573;32;20052;-75
2022/05/27 00:36:33;;;;;;;4.53;3.42;;;24.50;72.40;;;;;;10829474;32;20031;-76
2022/05/27 00:42:40;;;;;;;8.27;4.22;;;24.40;72.40;;;;;;10849705;32;20031;-75
2022/05/27 00:48:43;;;;;;;6.00;3.80;;;24.30;72.50;;;;;;10872571;32;20027;-75
2022/05/27 00:54:45;;;;;;;4.45;3.25;;;24.10;72.80;;;;;;10872517;32;20078;-75
2022/05/27 01:00:48;;;;;;;5.97;4.28;;;24.10;72.70;;;;;;10872176;32;20046;-75
2022/05/27 01:06:50;;;;;;;7.95;4.10;;;24.00;72.80;;;;;;10868573;32;20035;-75
2022/05/27 01:13:41;;;;;;;5.37;3.08;;;23.90;73.00;;;;;;10871870;32;20320;-75
2022/05/27 01:20:19;;;;;;;6.18;3.62;;;23.90;73.10;;;;;;10908051;32;20031;-76
2022/05/27 01:26:36;;;;;;;7.40;4.55;;;24.00;73.20;;;;;;10908636;32;20054;-76
2022/05/27 01:33:29;;;;;;;10.93;5.95;;;24.00;73.70;;;;;;10908515;32;20363;-75
2022/05/27 01:39:40;;;;;;;11.07;5.78;;;24.00;73.30;;;;;;10757206;33;20040;-76
2022/05/27 01:46:02;;;;;;;6.65;4.47;;;23.80;73.50;;;;;;10755456;33;20032;-75
2022/05/27 01:52:55;;;;;;;8.85;5.53;;;23.70;73.80;;;;;;10744213;33;20362;-76
2022/05/27 01:59:01;;;;;;;8.93;4.25;;;23.70;73.70;;;;;;10611123;33;20034;-75
2022/05/27 02:05:15;;;;;;;7.10;4.47;;;23.70;73.70;;;;;;10608090;33;20060;-75
2022/05/27 02:11:19;;;;;;;9.18;5.57;;;23.70;73.60;;;;;;10634262;33;20028;-76
2022/05/27 02:17:30;;;;;;;7.10;4.07;;;23.70;73.60;;;;;;10755492;33;20071;-76
2022/05/27 02:23:38;;;;;;;9.13;5.07;;;23.70;73.60;;;;;;10742864;33;20054;-75
2022/05/27 02:29:46;;;;;;;7.22;4.35;;;23.70;73.80;;;;;;10791798;32;20380;-76
2022/05/27 02:35:50;;;;;;;;;;;23.60;73.80;;;;;;10903462;32;20023;-77
2022/05/27 02:42:10;;;;;;;10.38;4.60;;;23.60;74.10;;;;;;10901877;32;19945;-75
2022/05/27 02:48:34;;;;;;;6.80;4.43;;;23.60;74.20;;;;;;10905772;32;20031;-75
2022/05/27 02:54:49;;;;;;;10.65;5.53;;;23.50;74.30;;;;;;10905655;32;20062;-75
2022/05/27 03:00:51;;;;;;;7.20;5.85;;;23.40;74.20;;;;;;10903820;32;20023;-75
2022/05/27 03:07:28;;;;;;;9.07;5.75;;;23.50;74.10;;;;;;10905225;32;20057;-75
2022/05/27 03:14:03;;;;;;;8.80;5.75;;;23.50;73.80;;;;;;10905005;32;20283;-75
2022/05/27 03:20:32;;;;;;;10.45;6.93;;;23.60;73.90;;;;;;10896148;32;20059;-75
2022/05/27 03:26:52;;;;;;;9.90;6.25;;;23.60;73.70;;;;;;10899675;32;20050;-76
2022/05/27 03:33:14;;;;;;;7.43;5.45;;;23.60;73.60;;;;;;10903935;32;20019;-76
2022/05/27 03:39:27;;;;;;;12.37;7.07;;;23.50;73.70;;;;;;10753576;33;20048;-76
2022/05/27 03:45:29;;;;;;;10.00;6.25;;;23.50;74.30;;;;;;10752046;33;20445;-76
2022/05/27 03:51:38;;;;;;;10.30;7.40;;;23.40;74.70;;;;;;10753441;33;20025;-76
2022/05/27 03:57:40;;;;;;;11.02;9.27;;;23.50;74.60;;;;;;10753279;33;20024;-76
2022/05/27 04:03:42;;;;;;;8.90;7.78;;;23.40;74.50;;;;;;10737659;33;20028;-76
2022/05/27 04:09:44;;;;;;;11.98;8.55;;;23.30;74.50;;;;;;10740940;33;20024;-76
2022/05/27 04:15:46;;;;;;;11.77;7.28;;;23.40;74.50;;;;;;10858304;32;20024;-76
2022/05/27 04:21:48;;;;;;;11.75;10.00;;;23.40;74.70;;;;;;10902774;32;20058;-76
2022/05/27 04:27:51;;;;;;;14.07;9.35;;;23.50;74.60;;;;;;10903585;32;20035;-76
2022/05/27 04:33:54;;;;;;;11.90;8.30;;;23.50;74.50;;;;;;10903592;32;20019;-77
2022/05/27 04:39:56;;;;;;;13.88;9.13;;;23.50;74.50;;;;;;10902619;32;20038;-76
2022/05/27 04:45:58;;;;;;;9.25;6.47;;;23.60;74.60;;;;;;10901728;32;20309;-77
2022/05/27 04:52:01;;;;;;;14.48;9.38;;;23.50;74.60;;;;;;10901433;32;20050;-76
2022/05/27 04:58:21;;;;;;;9.50;7.25;;;23.60;74.50;;;;;;10908263;32;20351;-77
2022/05/27 05:04:23;;;;;;;9.95;8.00;;;23.60;74.40;;;;;;10909561;32;20438;-76
2022/05/27 05:10:26;;;;;;;11.52;9.15;;;23.70;74.40;;;;;;10908476;32;20058;-77
2022/05/27 05:16:28;;;;;;;10.02;7.80;;;23.80;74.30;;;;;;10906836;32;20019;-76
2022/05/27 05:22:33;;;;;;;9.07;6.22;;;23.80;74.30;;;;;;10908841;32;20024;-77
2022/05/27 05:28:36;;;;;;;7.93;6.87;;;23.80;74.20;;;;;;10908604;32;20062;-76
2022/05/27 05:34:38;;;;;;;10.85;6.43;;;23.80;74.00;;;;;;10903409;32;20028;-77
2022/05/27 05:40:41;;;;;;;9.32;5.87;;;23.90;74.00;;;;;;10906714;32;20061;-76
2022/05/27 05:46:43;;;;;;;10.10;6.40;;;24.00;74.00;;;;;;10908156;32;20063;-76
2022/05/27 05:52:46;;;;;;;8.73;6.25;;;24.20;73.70;;;;;;10907781;32;20469;-76
2022/05/27 05:58:50;;;;;;;7.72;5.93;;;24.30;73.50;;;;;;10901925;32;20035;-77
2022/05/27 06:04:52;;;;;;;9.05;6.45;;;24.40;73.30;;;;;;10895851;32;20023;-77
2022/05/27 06:10:59;;;;;;;7.85;5.97;;;24.50;73.50;;;;;;10906323;32;20054;-75
2022/05/27 06:17:01;;;;;;;9.97;7.27;;;24.60;73.60;;;;;;10903177;32;20050;-76
2022/05/27 06:23:17;;;;;;;7.50;5.10;;;24.60;73.40;;;;;;10905269;32;20050;-75
2022/05/27 06:36:02;;;;;;;8.30;6.57;;;24.80;73.00;;;;;;10787753;33;20143;-75
2022/05/27 06:42:08;;;;;;;10.05;6.15;;;24.90;72.60;;;;;;10789644;33;20016;-75
2022/05/27 06:48:10;;;;;;;8.63;4.07;;;25.00;72.30;;;;;;10790197;33;20019;-75
2022/05/27 06:54:13;;;;;;;10.05;4.75;;;25.10;72.20;;;;;;10790545;33;20059;-75
2022/05/27 07:00:16;;;;;;;7.97;5.62;;;25.20;72.20;;;;;;10790394;33;20060;-74
2022/05/27 07:06:30;;;;;;;6.20;4.85;;;25.30;71.80;;;;;;10801251;32;20028;-76
2022/05/27 07:12:34;;;;;;;8.63;6.75;;;25.40;71.60;;;;;;10879817;32;20026;-76
2022/05/27 07:18:36;;;;;;;10.50;6.70;;;25.40;71.50;;;;;;10904105;32;20058;-76
2022/05/27 07:25:00;;;;;;;7.93;6.18;;;25.60;71.20;;;;;;10900407;32;20046;-75
2022/05/27 07:31:02;;;;;;;9.90;6.68;;;25.70;70.90;;;;;;10901904;32;20019;-73
2022/05/27 07:37:05;;;;;;;11.95;6.40;;;25.70;70.80;;;;;;10900640;32;20085;-75
2022/05/27 07:43:08;;;;;;;12.68;8.00;;;25.80;70.40;;;;;;10904311;32;20015;-75
2022/05/27 07:49:10;;;;;;;9.48;7.30;;;25.80;70.20;;;;;;10903064;32;20265;-74
2022/05/27 07:55:13;;;;;;;9.60;7.28;;;25.80;70.10;;;;;;10900069;32;20050;-76
2022/05/27 08:01:15;;;;;;;11.20;7.93;;;26.00;69.90;;;;;;10901447;32;20070;-75
2022/05/27 08:07:17;;;;;;;16.15;11.35;;;26.10;69.10;;;;;;10904026;32;20421;-72
2022/05/27 08:13:20;;;;;;;17.58;8.68;;;26.10;68.70;;;;;;10903730;32;20027;-74
2022/05/27 08:19:23;;;;;;;14.52;9.00;;;26.20;68.40;;;;;;10903777;32;20423;-74
2022/05/27 08:25:25;;;;;;;16.20;7.68;;;26.40;68.10;;;;;;10903495;32;20418;-75
2022/05/27 08:31:34;;;;;;;12.95;7.78;;;26.50;67.90;;;;;;10905551;32;20391;-72
2022/05/27 08:44:13;;;;;;;17.50;10.10;;;26.60;67.30;;;;;;10910196;32;20332;-75
2022/05/27 08:50:26;;;;;;;20.27;15.27;;;26.70;67.20;;;;;;10906972;32;20019;-73
2022/05/27 09:02:55;;;;;;;11.10;8.88;;;26.80;66.50;;;;;;10885240;32;20049;-74
2022/05/27 09:08:58;;;;;;;12.20;9.30;;;26.80;66.00;;;;;;10908401;32;20035;-75
2022/05/27 09:15:23;;;;;;;12.37;7.97;;;26.90;65.80;;;;;;10935784;27;20042;-73
2022/05/27 09:21:46;;;;;;;19.05;11.93;;;27.20;65.50;;;;;;10794340;32;20047;-72
2022/05/27 09:27:59;;;;;;;14.60;7.45;;;27.40;64.80;;;;;;10790751;32;20067;-73
2022/05/27 09:34:01;;;;;;;11.70;8.55;;;27.50;64.30;;;;;;10793788;33;20424;-75
2022/05/27 09:40:23;;;;;;;12.23;7.43;;;27.60;64.10;;;;;;10792735;33;20063;-77
2022/05/27 09:46:28;;;;;;;22.95;14.85;;;27.70;63.70;;;;;;10766181;33;20075;-73
2022/05/27 09:52:38;;;;;;;11.70;7.32;;;27.80;63.20;;;;;;10768338;33;20060;-76
2022/05/27 09:58:44;;;;;;;9.73;6.22;;;27.90;63.20;;;;;;10916069;32;20399;-74
2022/05/27 10:05:05;;;;;;;18.52;8.73;;;27.90;63.10;;;;;;10944981;32;20067;-73
2022/05/27 10:11:31;;;;;;;13.40;7.28;;;27.90;62.90;;;;;;10942679;32;20081;-76
2022/05/27 10:17:37;;;;;;;15.23;8.07;;;27.90;62.90;;;;;;10940444;32;20042;-73
2022/05/27 10:23:42;;;;;;;11.20;6.28;;;28.20;62.30;;;;;;10944398;32;20046;-75
2022/05/27 10:29:59;;;;;;;12.93;6.47;;;28.00;62.10;;;;;;10944337;32;20054;-75
2022/05/27 10:36:02;;;;;;;12.40;7.03;;;28.10;62.50;;;;;;10930463;32;20461;-74
2022/05/27 10:42:25;;;;;;;15.30;6.57;;;28.40;61.50;;;;;;10960115;32;20053;-76
2022/05/27 10:48:31;;;;;;;9.88;6.97;;;28.80;61.00;;;;;;10976834;32;20073;-77
2022/05/27 10:55:02;;;;;;;8.77;6.18;;;29.10;60.60;;;;;;10980467;32;20334;-75
2022/05/27 11:07:32;;;;;;;13.98;7.03;;;29.80;58.80;;;;;;10978111;32;20386;-74
2022/05/27 11:20:24;;;;;;;10.27;5.40;;;29.80;58.30;;;;;;10942298;32;20053;-74
2022/05/27 11:33:20;;;;;;;9.70;6.47;;;30.30;57.40;;;;;;10823790;32;20035;-77
2022/05/27 11:39:51;;;;;;;9.07;5.93;;;30.60;56.70;;;;;;10826721;32;20066;-75
2022/05/27 11:46:12;;;;;;;9.95;6.72;;;30.80;55.90;;;;;;10826658;32;20039;-76
2022/05/27 11:52:45;;;;;;;12.65;5.47;;;30.90;55.60;;;;;;10824212;32;20024;-76
2022/05/27 11:59:03;;;;;;;10.88;7.28;;;30.80;55.90;;;;;;10826582;33;20070;-76
2022/05/27 12:05:26;;;;;;;14.87;5.90;;;30.60;55.60;;;;;;10945398;32;20391;-77
2022/05/27 12:11:51;;;;;;;13.45;6.85;;;30.60;55.70;;;;;;10949338;32;20023;-74
2022/05/27 12:17:55;;;;;;;18.27;9.50;;;30.80;55.10;;;;;;10949283;32;20050;-74
2022/05/27 12:24:29;;;;;;;12.63;7.95;;;30.60;55.00;;;;;;10948338;32;20081;-77
2022/05/27 12:30:41;;;;;;;10.73;6.35;;;30.60;55.00;;;;;;10932005;32;20019;-77
2022/05/27 12:36:43;;;;;;;17.02;10.52;;;30.80;54.80;;;;;;10931637;32;20026;-78
2022/05/27 12:42:45;;;;;;;9.07;6.47;;;30.80;54.80;;;;;;10954886;32;20049;-74
2022/05/27 12:48:48;;;;;;;10.02;7.47;;;30.50;55.00;;;;;;10984954;32;20472;-75
2022/05/27 12:54:50;;;;;;;13.85;6.85;;;30.70;55.00;;;;;;10967932;32;20417;-78
2022/05/27 13:01:03;;;;;;;9.50;5.18;;;30.80;54.20;;;;;;10985340;32;20395;-75
2022/05/27 13:07:06;;;;;;;9.85;6.55;;;30.80;53.50;;;;;;10972469;32;20031;-75
2022/05/27 13:13:18;;;;;;;10.20;5.82;;;30.80;53.60;;;;;;10947142;32;20418;-77
2022/05/27 13:19:40;;;;;;;8.68;4.72;;;30.80;53.90;;;;;;10932732;32;20034;-76
2022/05/27 13:26:17;;;;;;;9.98;7.10;;;30.90;54.00;;;;;;10943633;32;20065;-77
2022/05/27 13:32:22;;;;;;;8.43;5.67;;;30.90;53.90;;;;;;10753715;33;20398;-76
2022/05/27 13:38:43;;;;;;;21.05;10.30;;;30.90;54.10;;;;;;10756580;33;20037;-73
2022/05/27 13:44:51;;;;;;;17.05;9.73;;;31.00;53.60;;;;;;10756411;33;20385;-79
2022/05/27 13:51:10;;;;;;;5.78;4.37;;;30.90;54.10;;;;;;10757468;33;20043;-77
2022/05/27 13:57:25;;;;;;;7.55;4.20;;;31.10;54.50;;;;;;10757013;33;20361;-77
2022/05/27 14:03:48;;;;;;;16.05;7.43;;;31.30;54.20;;;;;;10752448;33;20048;-77
2022/05/27 14:09:58;;;;;;;11.12;6.78;;;31.40;53.70;;;;;;10919936;32;20050;-76
2022/05/27 14:16:00;;;;;;;12.82;7.40;;;31.40;54.10;;;;;;10940272;32;20019;-75
2022/05/27 14:28:55;;;;;;;11.73;4.78;;;31.30;55.20;;;;;;10940506;32;20049;-76
2022/05/27 14:34:58;;;;;;;7.35;5.05;;;31.20;55.40;;;;;;10946763;32;20477;-77
2022/05/27 14:41:01;;;;;;;19.95;7.87;;;31.10;55.40;;;;;;10958174;32;20022;-75
2022/05/27 14:47:14;;;;;;;12.43;7.28;;;30.90;56.10;;;;;;10981607;32;20049;-78
2022/05/27 14:53:17;;;;;;;11.40;5.72;;;30.90;56.00;;;;;;10980514;32;20019;-78
2022/05/27 14:59:31;;;;;;;11.10;5.45;;;30.90;55.80;;;;;;10980720;32;20057;-77
2022/05/27 15:05:35;;;;;;;8.30;4.28;;;30.90;55.90;;;;;;10966960;32;20026;-80
2022/05/27 15:11:37;;;;;;;8.65;5.45;;;31.00;55.60;;;;;;10980451;32;20080;-78
2022/05/27 15:17:50;;;;;;;12.35;5.43;;;31.00;55.60;;;;;;10980394;32;20041;-78
2022/05/27 15:24:01;;;;;;;7.30;4.82;;;31.00;55.50;;;;;;10975820;32;20035;-78
2022/05/27 15:36:28;;;;;;;9.80;4.32;;;30.80;56.10;;;;;;10979790;32;20018;-78
2022/05/27 15:42:41;;;;;;;13.07;4.07;;;30.80;56.20;;;;;;10963623;32;20045;-76
2022/05/27 15:48:43;;;;;;;13.50;5.10;;;30.80;55.20;;;;;;10978966;32;20038;-78
2022/05/27 15:54:45;;;;;;;8.07;3.90;;;30.70;54.80;;;;;;10978135;32;20030;-77
2022/05/27 16:01:04;;;;;;;6.30;3.53;;;30.80;54.00;;;;;;10974871;32;20085;-78
2022/05/27 16:07:07;;;;;;;9.57;4.35;;;30.80;53.80;;;;;;10978854;32;20061;-78
2022/05/27 16:13:35;;;;;;;9.88;2.87;;;30.80;53.30;;;;;;10978683;32;20395;-78
2022/05/27 16:19:37;;;;;;;8.45;2.87;;;30.80;52.20;;;;;;10974427;32;20068;-78
2022/05/27 16:25:42;;;;;;;7.18;3.33;;;30.70;51.90;;;;;;10978620;32;20390;-77
2022/05/27 16:31:49;;;;;;;8.35;2.80;;;30.60;52.30;;;;;;10978159;32;20391;-77
2022/05/27 16:37:52;;;;;;;6.40;3.13;;;30.50;52.20;;;;;;10978618;32;20334;-75
2022/05/27 16:43:54;;;;;;;4.37;2.03;;;30.60;51.40;;;;;;10978367;32;20027;-74
2022/05/27 16:49:57;;;;;;;7.15;1.67;;;30.50;51.80;;;;;;10980280;32;20049;-76
2022/05/27 16:55:59;;;;;;;5.55;2.33;;;30.30;52.30;;;;;;10981531;32;20057;-76
2022/05/27 17:02:03;;;;;;;5.12;1.73;;;30.10;53.50;;;;;;10970737;32;20049;-76
2022/05/27 17:08:05;;;;;;;5.40;2.30;;;29.90;53.50;;;;;;10982762;32;20315;-76
2022/05/27 17:14:08;;;;;;;2.85;1.98;;;29.80;53.10;;;;;;10959758;27;20027;-76
2022/05/27 17:20:11;;;;;;;7.90;2.28;;;29.70;53.10;;;;;;10908565;32;20011;-75
2022/05/27 17:26:13;;;;;;;12.13;3.35;;;29.70;52.80;;;;;;10908885;32;20027;-75
2022/05/27 17:32:16;;;;;;;3.65;2.08;;;29.80;52.30;;;;;;10891908;32;20027;-75
2022/05/27 17:38:18;;;;;;;5.15;2.47;;;29.80;52.60;;;;;;10895406;32;20023;-76
2022/05/27 17:44:21;;;;;;;3.97;2.00;;;29.90;53.10;;;;;;10908634;32;20042;-77
2022/05/27 17:56:58;;;;;;;3.05;1.80;;;30.80;51.90;;;;;;10907811;32;20023;-77
2022/05/27 18:03:01;;;;;;;2.17;1.30;;;31.30;50.40;;;;;;10889476;32;20019;-77
2022/05/27 18:09:03;;;;;;;10.75;1.65;;;30.90;51.10;;;;;;10904539;32;20053;-77
2022/05/27 18:15:06;;;;;;;3.67;1.80;;;30.40;52.00;;;;;;10906751;32;20046;-78
2022/05/27 18:21:09;;;;;;;9.07;1.45;;;30.10;52.70;;;;;;10906442;32;20077;-77
2022/05/27 18:27:12;;;;;;;4.78;1.52;;;29.80;53.30;;;;;;10906687;32;20407;-78
2022/05/27 18:33:15;;;;;;;3.58;1.52;;;29.70;54.00;;;;;;10906349;32;20027;-75
2022/05/27 18:39:31;;;;;;;1.95;0.85;;;29.50;54.50;;;;;;10901987;32;20426;-75
2022/05/27 18:45:34;;;;;;;3.92;1.50;;;29.30;54.70;;;;;;10905837;32;20058;-75
2022/05/27 18:51:36;;;;;;;9.05;2.00;;;29.20;54.90;;;;;;10904850;32;20015;-76
2022/05/27 18:57:46;;;;;;;5.00;1.67;;;29.10;55.10;;;;;;10901229;32;20418;-76
2022/05/27 19:03:48;;;;;;;3.72;1.70;;;29.00;55.40;;;;;;10903300;32;20443;-76
2022/05/27 19:09:50;;;;;;;3.78;1.70;;;28.90;55.70;;;;;;10887837;32;20031;-76
2022/05/27 19:15:53;;;;;;;3.90;1.90;;;28.80;56.10;;;;;;10899017;32;20031;-76
2022/05/27 19:21:55;;;;;;;2.83;1.37;;;28.80;56.30;;;;;;10904716;32;20027;-76
2022/05/27 19:27:59;;;;;;;7.35;1.75;;;28.60;56.60;;;;;;10904246;32;20035;-76
2022/05/27 19:34:01;;;;;;;8.13;2.12;;;28.50;56.70;;;;;;10889909;32;20020;-73
2022/05/27 19:40:04;;;;;;;6.35;1.73;;;28.40;57.10;;;;;;10903036;32;20399;-74
2022/05/27 19:46:08;;;;;;;4.20;2.12;;;28.30;57.70;;;;;;10896918;32;20057;-74
2022/05/27 19:52:11;;;;;;;7.82;2.62;;;28.30;58.20;;;;;;10901849;32;20422;-74
2022/05/27 20:04:53;;;;;;;4.25;2.30;;;28.10;59.30;;;;;;10899097;32;20027;-74
2022/05/27 20:11:37;;;;;;;3.90;1.80;;;27.90;60.60;;;;;;10900122;32;20041;-74
2022/05/27 20:17:44;;;;;;;4.40;2.05;;;27.70;61.50;;;;;;10823650;32;20182;-74
2022/05/27 20:23:48;;;;;;;3.45;1.55;;;27.80;61.50;;;;;;10826269;32;20145;-74
2022/05/27 20:29:51;;;;;;;2.80;1.90;;;27.80;61.60;;;;;;10831651;32;20050;-74
2022/05/27 20:42:24;;;;;;;2.37;1.40;;;27.60;62.00;;;;;;10829556;32;20032;-77
2022/05/27 20:48:26;;;;;;;3.53;1.95;;;27.60;62.00;;;;;;10895521;32;20035;-78
2022/05/27 20:54:28;;;;;;;3.33;1.77;;;27.50;63.00;;;;;;10910267;32;20027;-77
2022/05/27 21:00:30;;;;;;;2.40;1.40;;;27.40;63.60;;;;;;10909732;32;20049;-77
2022/05/27 21:06:32;;;;;;;3.53;1.80;;;27.30;63.50;;;;;;10905507;32;20023;-77
2022/05/27 21:12:34;;;;;;;4.07;1.77;;;27.30;63.60;;;;;;10905541;32;20023;-77
2022/05/27 21:18:36;;;;;;;7.00;2.33;;;27.30;63.60;;;;;;10894833;32;20035;-77
2022/05/27 21:24:40;;;;;;;4.55;2.30;;;27.20;63.60;;;;;;10909304;32;20391;-77
2022/05/27 21:30:43;;;;;;;3.33;1.75;;;27.20;64.00;;;;;;10895602;32;20031;-77
2022/05/27 21:36:45;;;;;;;5.85;2.72;;;27.10;64.90;;;;;;10903794;32;20332;-77
2022/05/27 21:42:47;;;;;;;7.97;2.05;;;27.00;64.90;;;;;;10906854;32;20032;-77
2022/05/27 21:48:52;;;;;;;3.25;1.65;;;26.90;64.90;;;;;;10908960;32;20031;-77
2022/05/27 21:54:54;;;;;;;4.82;2.17;;;26.90;64.90;;;;;;10906796;32;20023;-77
2022/05/27 22:01:02;;;;;;;4.40;2.10;;;26.80;64.80;;;;;;10907923;32;20032;-77
2022/05/27 22:07:05;;;;;;;2.85;1.65;;;26.80;65.00;;;;;;10907492;32;20023;-77
2022/05/27 22:13:07;;;;;;;4.78;2.45;;;26.70;65.00;;;;;;10903827;32;20053;-77
2022/05/27 22:19:09;;;;;;;3.37;1.87;;;26.70;65.30;;;;;;10893170;32;20085;-77
2022/05/27 22:25:13;;;;;;;2.60;1.58;;;26.70;65.70;;;;;;10906605;32;20045;-77
2022/05/27 22:31:15;;;;;;;3.35;2.17;;;26.70;65.70;;;;;;10904433;32;20050;-77
2022/05/27 22:37:17;;;;;;;5.03;2.45;;;26.60;65.90;;;;;;10902172;32;20020;-77
2022/05/27 22:43:20;;;;;;;3.05;2.30;;;26.60;66.00;;;;;;10906643;32;20066;-77
2022/05/27 22:49:22;;;;;;;5.25;2.50;;;26.60;66.20;;;;;;10905973;32;20050;-77
2022/05/27 22:55:23;;;;;;;7.50;2.55;;;26.50;66.30;;;;;;10906015;32;20344;-77
2022/05/27 23:01:26;;;;;;;5.60;2.45;;;26.50;66.30;;;;;;10905752;32;20050;-77
2022/05/27 23:07:28;;;;;;;3.45;2.10;;;26.40;66.50;;;;;;10905463;32;20023;-77
2022/05/27 23:19:51;;;;;;;5.30;2.70;;;26.30;67.00;;;;;;10905250;32;20011;-77
2022/05/27 23:26:00;;;;;;;4.62;2.95;;;26.20;67.10;;;;;;10900967;32;20050;-77
2022/05/27 23:32:04;;;;;;;6.62;2.47;;;26.10;67.60;;;;;;10904808;32;20019;-77
2022/05/27 23:38:06;;;;;;;3.37;2.20;;;26.10;68.00;;;;;;10891295;32;20023;-77
2022/05/27 23:44:09;;;;;;;3.33;2.20;;;26.00;68.00;;;;;;10904599;32;20373;-76
2022/05/27 23:50:11;;;;;;;5.28;2.87;;;25.90;68.10;;;;;;10904281;32;20031;-77
2022/05/27 23:56:18;;;;;;;2.53;1.40;;;25.90;68.30;;;;;;10904465;32;20046;-77
